sensor_id;sensor_type;location;lat;lon;timestamp;temperature;humidity
29255;DHT22;16277;48.890;2.306;2023-04-24T00:02:48;12.70;99.90
29255;DHT22;16277;48.890;2.306;2023-04-24T00:17:54;12.50;99.90
29255;DHT22;16277;48.890;2.306;2023-04-24T00:32:58;12.80;99.90
29255;DHT22;16277;48.890;2.306;2023-04-24T00:48:04;12.80;99.90
29255;DHT22;16277;48.890;2.306;2023-04-24T01:03:08;12.50;99.90
29255;DHT22;16277;48.890;2.306;2023-04-24T01:18:14;12.10;99.90
29255;DHT22;16277;48.890;2.306;2023-04-24T01:33:21;12.10;99.90
29255;DHT22;16277;48.890;2.306;2023-04-24T01:48:27;12.40;99.90
29255;DHT22;16277;48.890;2.306;2023-04-24T02:03:31;12.00;99.90
29255;DHT22;16277;48.890;2.306;2023-04-24T02:18:36;12.30;99.90
29255;DHT22;16277;48.890;2.306;2023-04-24T02:33:41;12.50;99.90
29255;DHT22;16277;48.890;2.306;2023-04-24T02:48:45;12.10;99.90
29255;DHT22;16277;48.890;2.306;2023-04-24T03:03:50;12.60;99.90
29255;DHT22;16277;48.890;2.306;2023-04-24T03:18:55;12.10;99.90
29255;DHT22;16277;48.890;2.306;2023-04-24T03:34:02;12.10;99.90
29255;DHT22;16277;48.890;2.306;2023-04-24T03:49:07;11.80;99.90
29255;DHT22;16277;48.890;2.306;2023-04-24T04:04:16;11.90;99.90
29255;DHT22;16277;48.890;2.306;2023-04-24T04:19:21;12.20;99.90
29255;DHT22;16277;48.890;2.306;2023-04-24T04:34:27;12.20;99.90
29255;DHT22;16277;48.890;2.306;2023-04-24T04:49:33;11.80;99.90
29255;DHT22;16277;48.890;2.306;2023-04-24T05:04:39;12.20;99.90
29255;DHT22;16277;48.890;2.306;2023-04-24T05:19:44;12.00;99.90
29255;DHT22;16277;48.890;2.306;2023-04-24T05:34:51;11.90;99.90
29255;DHT22;16277;48.890;2.306;2023-04-24T05:49:55;12.10;99.90
29255;DHT22;16277;48.890;2.306;2023-04-24T06:05:00;12.10;99.90
29255;DHT22;16277;48.890;2.306;2023-04-24T06:20:07;12.10;99.90
29255;DHT22;16277;48.890;2.306;2023-04-24T06:35:12;12.50;99.90
29255;DHT22;16277;48.890;2.306;2023-04-24T06:50:16;12.30;99.90
29255;DHT22;16277;48.890;2.306;2023-04-24T07:05:20;12.70;99.90
29255;DHT22;16277;48.890;2.306;2023-04-24T07:20:26;12.40;99.90
29255;DHT22;16277;48.890;2.306;2023-04-24T07:35:30;13.10;99.90
29255;DHT22;16277;48.890;2.306;2023-04-24T07:50:35;13.30;99.90
29255;DHT22;16277;48.890;2.306;2023-04-24T08:05:41;13.20;99.90
29255;DHT22;16277;48.890;2.306;2023-04-24T08:20:46;13.00;99.90
29255;DHT22;16277;48.890;2.306;2023-04-24T08:35:51;13.20;99.90
29255;DHT22;16277;48.890;2.306;2023-04-24T08:50:56;13.80;99.90
29255;DHT22;16277;48.890;2.306;2023-04-24T09:06:01;13.80;99.90
29255;DHT22;16277;48.890;2.306;2023-04-24T09:21:09;14.20;99.90
29255;DHT22;16277;48.890;2.306;2023-04-24T09:36:17;13.70;99.90
29255;DHT22;16277;48.890;2.306;2023-04-24T09:51:33;14.10;99.90
29255;DHT22;16277;48.890;2.306;2023-04-24T10:06:38;14.50;99.90
29255;DHT22;16277;48.890;2.306;2023-04-24T10:21:43;14.80;99.90
29255;DHT22;16277;48.890;2.306;2023-04-24T10:36:51;15.00;99.90
29255;DHT22;16277;48.890;2.306;2023-04-24T10:52:03;15.10;99.90
29255;DHT22;16277;48.890;2.306;2023-04-24T11:07:08;15.30;99.90
29255;DHT22;16277;48.890;2.306;2023-04-24T11:22:16;15.60;99.90
29255;DHT22;16277;48.890;2.306;2023-04-24T11:37:25;15.70;99.90
29255;DHT22;16277;48.890;2.306;2023-04-24T11:52:30;16.00;99.90
29255;DHT22;16277;48.890;2.306;2023-04-24T12:07:41;15.90;99.50
29255;DHT22;16277;48.890;2.306;2023-04-24T12:22:50;16.20;97.10
29255;DHT22;16277;48.890;2.306;2023-04-24T12:38:05;15.70;96.40
29255;DHT22;16277;48.890;2.306;2023-04-24T12:53:10;15.90;97.60
29255;DHT22;16277;48.890;2.306;2023-04-24T13:08:14;16.00;94.40
29255;DHT22;16277;48.890;2.306;2023-04-24T13:23:19;16.40;93.50
29255;DHT22;16277;48.890;2.306;2023-04-24T13:38:23;15.70;96.40
29255;DHT22;16277;48.890;2.306;2023-04-24T13:53:28;15.70;95.10
29255;DHT22;16277;48.890;2.306;2023-04-24T14:08:32;18.20;91.50
29255;DHT22;16277;48.890;2.306;2023-04-24T14:23:37;17.30;91.70
29255;DHT22;16277;48.890;2.306;2023-04-24T14:38:41;19.90;84.20
29255;DHT22;16277;48.890;2.306;2023-04-24T14:53:46;19.70;80.90
29255;DHT22;16277;48.890;2.306;2023-04-24T15:08:51;18.60;78.50
29255;DHT22;16277;48.890;2.306;2023-04-24T15:23:55;17.00;89.00
29255;DHT22;16277;48.890;2.306;2023-04-24T15:39:01;15.90;91.10
29255;DHT22;16277;48.890;2.306;2023-04-24T15:54:08;18.70;84.00
29255;DHT22;16277;48.890;2.306;2023-04-24T16:09:13;22.10;74.10
29255;DHT22;16277;48.890;2.306;2023-04-24T16:24:18;19.90;83.80
29255;DHT22;16277;48.890;2.306;2023-04-24T16:39:23;17.80;90.10
29255;DHT22;16277;48.890;2.306;2023-04-24T16:54:29;16.80;93.20
29255;DHT22;16277;48.890;2.306;2023-04-24T17:09:36;17.10;93.00
29255;DHT22;16277;48.890;2.306;2023-04-24T17:24:41;16.40;94.40
29255;DHT22;16277;48.890;2.306;2023-04-24T17:39:45;17.90;93.60
29255;DHT22;16277;48.890;2.306;2023-04-24T17:54:50;18.60;91.50
29255;DHT22;16277;48.890;2.306;2023-04-24T18:09:54;18.30;92.20
29255;DHT22;16277;48.890;2.306;2023-04-24T18:24:59;17.30;93.80
29255;DHT22;16277;48.890;2.306;2023-04-24T18:40:04;17.10;94.40
29255;DHT22;16277;48.890;2.306;2023-04-24T18:55:09;16.60;94.70
29255;DHT22;16277;48.890;2.306;2023-04-24T19:10:14;15.80;97.20
29255;DHT22;16277;48.890;2.306;2023-04-24T19:25:19;16.30;99.20
29255;DHT22;16277;48.890;2.306;2023-04-24T19:40:24;16.50;99.90
29255;DHT22;16277;48.890;2.306;2023-04-24T19:55:29;15.70;99.90
29255;DHT22;16277;48.890;2.306;2023-04-24T20:10:35;15.40;99.90
29255;DHT22;16277;48.890;2.306;2023-04-24T20:25:39;15.80;99.90
29255;DHT22;16277;48.890;2.306;2023-04-24T20:40:44;15.00;99.90
29255;DHT22;16277;48.890;2.306;2023-04-24T20:56:00;14.70;99.90
29255;DHT22;16277;48.890;2.306;2023-04-24T21:11:05;15.40;99.90
29255;DHT22;16277;48.890;2.306;2023-04-24T21:26:09;15.20;99.90
29255;DHT22;16277;48.890;2.306;2023-04-24T21:41:14;15.40;99.90
29255;DHT22;16277;48.890;2.306;2023-04-24T21:56:19;15.40;99.90
29255;DHT22;16277;48.890;2.306;2023-04-24T22:11:23;15.60;99.90
29255;DHT22;16277;48.890;2.306;2023-04-24T22:26:29;15.40;99.90
29255;DHT22;16277;48.890;2.306;2023-04-24T22:41:33;14.70;99.90
29255;DHT22;16277;48.890;2.306;2023-04-24T22:56:38;14.10;99.90
29255;DHT22;16277;48.890;2.306;2023-04-24T23:11:43;14.40;99.90
29255;DHT22;16277;48.890;2.306;2023-04-24T23:26:48;14.60;99.90
29255;DHT22;16277;48.890;2.306;2023-04-24T23:41:52;14.60;99.90
29255;DHT22;16277;48.890;2.306;2023-04-24T23:56:58;14.30;99.90
